createdAt,value
2018-08-22T00:00:37.025Z,99.90
2018-08-22T00:03:05.416Z,99.90
2018-08-22T00:05:33.840Z,99.90
2018-08-22T00:08:02.166Z,99.90
2018-08-22T00:10:30.645Z,99.90
2018-08-22T00:12:58.922Z,99.90
2018-08-22T00:15:27.222Z,99.90
2018-08-22T00:17:55.532Z,99.90
2018-08-22T00:20:23.862Z,99.90
2018-08-22T00:22:52.178Z,99.90
2018-08-22T00:25:20.667Z,99.90
2018-08-22T00:27:49.032Z,99.90
2018-08-22T00:30:17.482Z,99.90
2018-08-22T00:32:45.904Z,99.90
2018-08-22T00:35:15.303Z,99.90
2018-08-22T00:37:43.958Z,99.90
2018-08-22T00:40:13.277Z,99.90
2018-08-22T00:42:41.629Z,99.90
2018-08-22T00:45:09.865Z,99.90
2018-08-22T00:47:38.218Z,99.90
2018-08-22T00:50:06.546Z,99.90
2018-08-22T00:52:34.820Z,99.90
2018-08-22T00:55:03.244Z,99.90
2018-08-22T00:57:31.619Z,99.90
2018-08-22T00:59:59.890Z,99.90
2018-08-22T01:02:28.185Z,99.90
2018-08-22T01:04:56.529Z,99.90
2018-08-22T01:07:24.862Z,99.90
2018-08-22T01:09:53.229Z,99.90
2018-08-22T01:12:21.466Z,99.90
2018-08-22T01:14:49.891Z,99.90
2018-08-22T01:17:18.237Z,99.90
2018-08-22T01:19:46.809Z,99.90
2018-08-22T01:22:15.602Z,99.90
2018-08-22T01:24:45.200Z,99.90
2018-08-22T01:27:19.968Z,99.90
2018-08-22T01:29:48.511Z,99.90
2018-08-22T01:32:16.960Z,99.90
2018-08-22T01:34:45.463Z,99.90
2018-08-22T01:37:15.058Z,99.90
2018-08-22T01:39:44.645Z,99.90
2018-08-22T01:42:13.690Z,99.90
2018-08-22T01:44:42.833Z,99.90
2018-08-22T01:47:11.225Z,99.90
2018-08-22T01:49:40.215Z,99.90
2018-08-22T01:52:08.453Z,99.90
2018-08-22T01:54:36.857Z,99.90
2018-08-22T01:57:05.101Z,99.90
2018-08-22T01:59:33.388Z,99.90
2018-08-22T02:02:01.791Z,99.90
2018-08-22T02:04:30.251Z,99.90
2018-08-22T02:06:58.530Z,99.90
2018-08-22T02:09:27.062Z,99.90
2018-08-22T02:11:55.368Z,99.90
2018-08-22T02:14:23.557Z,99.90
2018-08-22T02:16:51.893Z,99.90
2018-08-22T02:19:20.180Z,99.90
2018-08-22T02:21:48.649Z,99.90
2018-08-22T02:24:17.142Z,99.90
2018-08-22T02:26:46.196Z,99.90
2018-08-22T02:29:15.802Z,99.90
2018-08-22T02:31:45.297Z,99.90
2018-08-22T02:34:14.796Z,99.90
2018-08-22T02:36:44.637Z,99.90
2018-08-22T02:39:13.827Z,99.90
2018-08-22T02:41:42.155Z,99.90
2018-08-22T02:44:10.481Z,99.90
2018-08-22T02:46:38.797Z,99.90
2018-08-22T02:49:11.291Z,99.90
2018-08-22T02:51:39.609Z,99.90
2018-08-22T02:54:07.932Z,99.90
2018-08-22T02:56:36.373Z,99.90
2018-08-22T02:59:04.982Z,99.90
2018-08-22T03:01:33.520Z,99.90
2018-08-22T03:04:01.829Z,99.90
2018-08-22T03:06:30.134Z,99.90
2018-08-22T03:08:58.486Z,99.90
2018-08-22T03:11:26.794Z,99.90
2018-08-22T03:13:55.128Z,99.90
2018-08-22T03:16:23.348Z,99.90
2018-08-22T03:18:51.672Z,99.90
2018-08-22T03:21:19.925Z,99.90
2018-08-22T03:23:48.304Z,99.90
2018-08-22T03:26:16.751Z,99.90
2018-08-22T03:28:45.288Z,99.90
2018-08-22T03:31:14.591Z,99.90
2018-08-22T03:33:43.709Z,99.90
2018-08-22T03:36:15.980Z,99.90
2018-08-22T03:38:45.873Z,99.90
2018-08-22T03:41:15.424Z,99.90
2018-08-22T03:43:47.556Z,99.90
2018-08-22T03:46:15.962Z,99.90
2018-08-22T03:48:45.501Z,99.90
2018-08-22T03:51:17.684Z,99.90
2018-08-22T03:53:46.076Z,99.90
2018-08-22T03:56:15.123Z,99.90
2018-08-22T03:58:44.212Z,99.90
2018-08-22T04:01:13.424Z,99.90
2018-08-22T04:03:41.688Z,99.90
2018-08-22T04:06:10.035Z,99.90
2018-08-22T04:08:38.383Z,99.90
2018-08-22T04:11:06.656Z,99.90
2018-08-22T04:13:34.986Z,99.90
2018-08-22T04:16:03.395Z,99.90
2018-08-22T04:18:31.647Z,99.90
2018-08-22T04:20:59.923Z,99.90
2018-08-22T04:23:28.221Z,99.90
2018-08-22T04:25:56.515Z,99.90
2018-08-22T04:28:24.802Z,99.90
2018-08-22T04:30:53.058Z,99.90
2018-08-22T04:33:21.387Z,99.90
2018-08-22T04:35:49.781Z,99.90
2018-08-22T04:38:18.167Z,99.90
2018-08-22T04:40:46.715Z,99.90
2018-08-22T04:43:15.265Z,99.90
2018-08-22T04:45:45.603Z,99.90
2018-08-22T04:48:15.029Z,99.90
2018-08-22T04:50:44.151Z,99.90
2018-08-22T04:53:14.374Z,99.90
2018-08-22T04:55:43.962Z,99.90
2018-08-22T04:58:13.332Z,99.90
2018-08-22T05:00:41.670Z,99.90
2018-08-22T05:03:09.967Z,99.90
2018-08-22T05:05:38.182Z,99.90
2018-08-22T05:08:06.392Z,99.90
2018-08-22T05:10:34.655Z,99.90
2018-08-22T05:13:02.950Z,99.90
2018-08-22T05:15:31.199Z,99.90
2018-08-22T05:17:59.437Z,99.90
2018-08-22T05:20:27.641Z,99.90
2018-08-22T05:22:55.876Z,99.90
2018-08-22T05:25:24.101Z,99.90
2018-08-22T05:27:52.297Z,99.90
2018-08-22T05:30:20.569Z,99.90
2018-08-22T05:32:48.842Z,99.90
2018-08-22T05:35:17.311Z,99.90
2018-08-22T05:37:45.696Z,99.90
2018-08-22T05:40:15.146Z,99.90
2018-08-22T05:42:44.387Z,99.90
2018-08-22T05:45:13.463Z,99.90
2018-08-22T05:47:41.735Z,99.90
2018-08-22T05:50:09.961Z,99.90
2018-08-22T05:52:45.954Z,99.90
2018-08-22T05:55:14.945Z,99.90
2018-08-22T05:57:44.562Z,99.90
2018-08-22T06:00:13.680Z,99.90
2018-08-22T06:02:42.952Z,99.90
2018-08-22T06:05:11.266Z,99.90
2018-08-22T06:07:39.486Z,99.90
2018-08-22T06:10:07.789Z,99.90
2018-08-22T06:12:36.192Z,99.90
2018-08-22T06:15:04.566Z,99.90
2018-08-22T06:17:32.867Z,99.90
2018-08-22T06:20:01.106Z,99.90
2018-08-22T06:22:29.334Z,99.90
2018-08-22T06:24:57.565Z,99.90
2018-08-22T06:27:25.796Z,99.90
2018-08-22T06:29:54.073Z,99.90
2018-08-22T06:32:22.368Z,99.90
2018-08-22T06:34:50.662Z,99.90
2018-08-22T06:37:19.019Z,99.90
2018-08-22T06:39:47.601Z,99.90
2018-08-22T06:42:16.254Z,99.90
2018-08-22T06:44:46.100Z,99.90
2018-08-22T06:47:15.259Z,99.90
2018-08-22T06:49:53.191Z,99.90
2018-08-22T06:52:22.888Z,99.90
2018-08-22T06:54:51.098Z,99.90
2018-08-22T06:57:19.376Z,99.90
2018-08-22T06:59:47.678Z,99.90
2018-08-22T07:02:17.408Z,99.90
2018-08-22T07:04:45.787Z,99.90
2018-08-22T07:07:14.303Z,99.90
2018-08-22T07:09:42.638Z,99.90
2018-08-22T07:12:11.026Z,99.90
2018-08-22T07:14:39.354Z,99.90
2018-08-22T07:17:07.821Z,99.90
2018-08-22T07:19:36.360Z,99.90
2018-08-22T07:22:04.799Z,99.90
2018-08-22T07:24:33.396Z,99.90
2018-08-22T07:27:01.725Z,99.90
2018-08-22T07:29:30.034Z,99.90
2018-08-22T07:31:58.463Z,99.90
2018-08-22T07:34:26.805Z,99.90
2018-08-22T07:36:55.067Z,99.90
2018-08-22T07:39:23.360Z,99.90
2018-08-22T07:41:51.720Z,99.90
2018-08-22T07:44:20.119Z,99.90
2018-08-22T07:46:48.593Z,99.90
2018-08-22T07:49:16.904Z,99.90
2018-08-22T07:51:45.240Z,99.90
2018-08-22T07:54:13.485Z,99.90
2018-08-22T07:56:41.789Z,99.90
2018-08-22T07:59:15.229Z,99.90
2018-08-22T08:01:43.576Z,99.90
2018-08-22T08:04:12.721Z,99.90
2018-08-22T08:06:41.378Z,99.90
2018-08-22T08:09:11.921Z,99.90
2018-08-22T08:11:40.237Z,99.90
2018-08-22T08:14:08.794Z,99.90
2018-08-22T08:16:37.164Z,99.90
2018-08-22T08:19:06.411Z,99.90
2018-08-22T08:21:34.729Z,99.90
2018-08-22T08:24:03.122Z,99.90
2018-08-22T08:26:31.524Z,99.90
2018-08-22T08:28:59.942Z,99.90
2018-08-22T08:31:28.364Z,99.90
2018-08-22T08:33:56.764Z,99.90
2018-08-22T08:36:25.063Z,99.90
2018-08-22T08:38:53.326Z,99.90
2018-08-22T08:41:21.680Z,99.90
2018-08-22T08:43:50.070Z,99.90
2018-08-22T08:46:18.480Z,99.90
2018-08-22T08:48:46.852Z,99.90
2018-08-22T08:51:15.123Z,99.90
2018-08-22T08:53:43.600Z,99.90
2018-08-22T08:56:11.993Z,99.90
2018-08-22T08:58:40.321Z,99.90
2018-08-22T09:01:08.636Z,99.90
2018-08-22T09:03:36.921Z,99.90
2018-08-22T09:06:05.652Z,99.90
2018-08-22T09:08:33.994Z,99.90
2018-08-22T09:11:02.302Z,99.90
2018-08-22T09:13:30.511Z,99.90
2018-08-22T09:15:58.722Z,99.90
2018-08-22T09:18:26.905Z,99.90
2018-08-22T09:20:55.332Z,99.90
2018-08-22T09:23:23.513Z,99.90
2018-08-22T09:25:51.720Z,99.90
2018-08-22T09:28:20.074Z,99.90
2018-08-22T09:30:48.428Z,99.90
2018-08-22T09:33:16.736Z,99.90
2018-08-22T09:35:45.090Z,99.90
2018-08-22T09:38:13.415Z,99.90
2018-08-22T09:40:41.700Z,99.90
2018-08-22T09:43:09.979Z,99.90
2018-08-22T09:45:38.387Z,99.90
2018-08-22T09:48:06.966Z,99.90
2018-08-22T09:50:35.571Z,99.90
2018-08-22T09:53:03.965Z,99.90
2018-08-22T09:55:32.637Z,99.90
2018-08-22T09:58:00.930Z,99.90
2018-08-22T10:00:34.900Z,99.90
2018-08-22T10:03:03.115Z,99.40
2018-08-22T10:05:35.105Z,99.90
2018-08-22T10:08:03.372Z,99.90
2018-08-22T10:10:31.664Z,99.20
2018-08-22T10:12:59.978Z,98.20
2018-08-22T10:15:28.264Z,98.20
2018-08-22T10:17:56.556Z,96.60
2018-08-22T10:20:26.857Z,97.00
2018-08-22T10:22:55.182Z,97.10
2018-08-22T10:25:23.434Z,97.50
2018-08-22T10:27:51.912Z,94.70
2018-08-22T10:30:20.216Z,93.80
2018-08-22T10:32:48.630Z,93.20
2018-08-22T10:35:17.144Z,93.30
2018-08-22T10:37:45.508Z,93.60
2018-08-22T10:40:13.818Z,93.60
2018-08-22T10:42:42.154Z,93.00
2018-08-22T10:45:10.690Z,93.10
2018-08-22T10:47:38.973Z,92.80
2018-08-22T10:50:07.367Z,92.90
2018-08-22T10:52:36.067Z,91.90
2018-08-22T10:55:04.572Z,90.90
2018-08-22T10:57:33.308Z,91.90
2018-08-22T11:00:01.591Z,90.80
2018-08-22T11:02:30.033Z,90.40
2018-08-22T11:04:58.343Z,91.80
2018-08-22T11:07:26.623Z,91.20
2018-08-22T11:09:55.068Z,90.30
2018-08-22T11:12:23.322Z,90.50
2018-08-22T11:14:51.626Z,91.10
2018-08-22T11:17:20.031Z,91.70
2018-08-22T11:19:48.395Z,90.60
2018-08-22T11:22:28.418Z,91.00
2018-08-22T11:25:08.008Z,91.20
2018-08-22T11:27:47.720Z,87.70
2018-08-22T11:30:27.266Z,88.90
2018-08-22T11:33:07.025Z,89.30
2018-08-22T11:35:36.880Z,89.80
2018-08-22T11:38:05.318Z,85.40
2018-08-22T11:40:35.947Z,83.80
2018-08-22T11:43:22.739Z,84.00
2018-08-22T11:45:51.312Z,84.40
2018-08-22T11:48:19.835Z,84.10
2018-08-22T11:50:48.301Z,83.10
2018-08-22T11:53:17.298Z,82.90
2018-08-22T11:55:45.642Z,83.00
2018-08-22T11:58:14.410Z,82.10
2018-08-22T12:00:54.302Z,83.60
2018-08-22T12:03:23.170Z,84.50
2018-08-22T12:05:51.553Z,84.30
2018-08-22T12:08:22.530Z,82.90
2018-08-22T12:10:50.897Z,84.90
2018-08-22T12:13:34.156Z,83.20
2018-08-22T12:16:03.012Z,83.00
2018-08-22T12:18:31.296Z,82.90
2018-08-22T12:21:00.145Z,82.30
2018-08-22T12:23:28.458Z,82.30
2018-08-22T12:25:57.352Z,83.20
2018-08-22T12:28:25.809Z,81.80
2018-08-22T12:30:54.474Z,82.30
2018-08-22T12:33:22.789Z,82.90
2018-08-22T12:35:51.268Z,83.10
2018-08-22T12:38:19.683Z,82.60
2018-08-22T12:40:48.352Z,83.00
2018-08-22T12:43:16.814Z,80.80
2018-08-22T12:45:45.064Z,81.10
2018-08-22T12:48:14.617Z,83.20
2018-08-22T12:50:42.939Z,81.50
2018-08-22T12:53:11.528Z,80.80
2018-08-22T12:55:39.998Z,81.80
2018-08-22T12:58:08.757Z,81.60
2018-08-22T13:00:37.156Z,81.70
2018-08-22T13:03:05.442Z,81.60
2018-08-22T13:05:33.817Z,80.80
2018-08-22T13:08:02.075Z,80.40
2018-08-22T13:10:30.389Z,81.10
2018-08-22T13:12:58.594Z,77.50
2018-08-22T13:15:26.869Z,77.80
2018-08-22T13:17:55.177Z,75.50
2018-08-22T13:20:25.492Z,75.90
2018-08-22T13:22:53.917Z,77.00
2018-08-22T13:25:22.506Z,75.80
2018-08-22T13:27:50.816Z,77.00
2018-08-22T13:30:19.149Z,74.70
2018-08-22T13:32:50.656Z,73.90
2018-08-22T13:35:19.007Z,76.00
2018-08-22T13:37:47.669Z,71.30
2018-08-22T13:40:16.174Z,71.20
2018-08-22T13:42:44.853Z,71.70
2018-08-22T13:45:13.189Z,71.70
2018-08-22T13:47:41.698Z,72.60
2018-08-22T13:53:05.717Z,73.20
2018-08-22T13:55:33.972Z,72.50
2018-08-22T13:58:02.393Z,70.70
2018-08-22T14:00:30.878Z,71.30
2018-08-22T14:03:05.383Z,72.40
2018-08-22T14:05:33.779Z,71.90
2018-08-22T14:08:02.136Z,73.60
2018-08-22T14:10:30.687Z,70.90
2018-08-22T14:12:59.138Z,72.20
2018-08-22T14:15:27.392Z,69.70
2018-08-22T14:17:55.673Z,68.90
2018-08-22T14:20:23.891Z,68.10
2018-08-22T14:22:52.599Z,68.10
2018-08-22T14:25:20.910Z,69.10
2018-08-22T14:27:49.240Z,68.30
2018-08-22T14:30:17.988Z,68.30
2018-08-22T14:32:46.404Z,68.10
2018-08-22T14:35:14.649Z,68.70
2018-08-22T14:37:43.054Z,67.80
2018-08-22T14:40:11.468Z,68.60
2018-08-22T14:42:39.838Z,68.00
2018-08-22T14:45:08.607Z,67.20
2018-08-22T14:47:36.884Z,66.20
2018-08-22T14:50:08.940Z,66.00
2018-08-22T14:52:37.793Z,66.50
2018-08-22T14:55:06.086Z,67.20
2018-08-22T14:57:34.410Z,67.20
2018-08-22T15:00:02.799Z,66.50
2018-08-22T15:02:31.323Z,67.90
2018-08-22T15:04:59.523Z,67.20
2018-08-22T15:07:27.869Z,66.30
2018-08-22T15:09:56.226Z,65.20
2018-08-22T15:12:24.512Z,65.20
2018-08-22T15:14:52.868Z,63.90
2018-08-22T15:17:21.211Z,64.00
2018-08-22T15:19:49.545Z,62.80
2018-08-22T15:22:17.932Z,63.90
2018-08-22T15:24:46.304Z,64.60
2018-08-22T15:27:14.645Z,61.80
2018-08-22T15:29:42.883Z,63.70
2018-08-22T15:32:11.233Z,62.10
2018-08-22T15:34:53.745Z,60.60
2018-08-22T15:37:22.463Z,60.90
2018-08-22T15:39:50.772Z,57.90
2018-08-22T15:42:19.286Z,58.70
2018-08-22T15:44:47.656Z,57.60
2018-08-22T15:47:15.989Z,58.70
2018-08-22T15:49:45.322Z,59.00
2018-08-22T15:52:15.006Z,59.10
2018-08-22T15:54:47.785Z,59.30
2018-08-22T15:57:16.039Z,61.30
2018-08-22T15:59:44.268Z,59.90
2018-08-22T16:02:12.626Z,60.30
2018-08-22T16:04:52.276Z,62.70
2018-08-22T16:07:20.530Z,61.70
2018-08-22T16:09:48.855Z,62.30
2018-08-22T16:12:17.063Z,61.40
2018-08-22T16:14:45.336Z,62.20
2018-08-22T16:17:18.274Z,59.50
2018-08-22T16:19:46.555Z,60.90
2018-08-22T16:22:14.807Z,61.20
2018-08-22T16:24:43.048Z,61.20
2018-08-22T16:27:11.481Z,60.00
2018-08-22T16:29:39.767Z,59.80
2018-08-22T16:32:08.261Z,60.00
2018-08-22T16:34:36.516Z,60.70
2018-08-22T16:37:04.833Z,59.70
2018-08-22T16:39:43.534Z,60.40
2018-08-22T16:42:12.052Z,59.90
2018-08-22T16:44:41.017Z,59.80
2018-08-22T16:47:09.216Z,60.20
2018-08-22T16:49:37.543Z,59.40
2018-08-22T16:52:06.001Z,58.90
2018-08-22T16:54:34.306Z,57.00
2018-08-22T16:57:02.685Z,56.40
2018-08-22T16:59:31.091Z,56.30
2018-08-22T17:01:59.516Z,56.50
2018-08-22T17:04:27.714Z,56.80
2018-08-22T17:06:57.838Z,56.50
2018-08-22T17:09:27.176Z,57.20
2018-08-22T17:11:55.452Z,57.60
2018-08-22T17:14:23.803Z,57.30
2018-08-22T17:16:52.082Z,58.30
2018-08-22T17:19:20.373Z,58.70
2018-08-22T17:21:48.791Z,59.10
2018-08-22T17:24:17.172Z,60.60
2018-08-22T17:26:45.416Z,61.20
2018-08-22T17:29:13.714Z,62.40
2018-08-22T17:31:42.597Z,63.10
2018-08-22T17:34:10.929Z,63.70
2018-08-22T17:36:39.221Z,64.50
2018-08-22T17:39:07.700Z,64.30
2018-08-22T17:41:36.138Z,64.60
2018-08-22T17:44:08.728Z,65.40
2018-08-22T17:46:42.244Z,67.40
2018-08-22T17:49:10.787Z,69.00
2018-08-22T17:51:54.371Z,68.10
2018-08-22T17:54:22.651Z,69.70
2018-08-22T17:57:01.009Z,71.80
2018-08-22T17:59:29.289Z,69.40
2018-08-22T18:02:03.457Z,70.70
2018-08-22T18:04:43.808Z,71.20
2018-08-22T18:07:12.084Z,72.20
2018-08-22T18:09:40.353Z,73.10
2018-08-22T18:12:08.748Z,74.50
2018-08-22T18:14:37.093Z,76.50
2018-08-22T18:17:06.435Z,78.60
2018-08-22T18:19:36.366Z,80.30
2018-08-22T18:22:04.631Z,81.20
2018-08-22T18:24:33.508Z,81.70
2018-08-22T18:27:04.995Z,82.80
2018-08-22T18:29:33.784Z,83.90
2018-08-22T18:32:02.027Z,84.80
2018-08-22T18:34:30.388Z,86.20
2018-08-22T18:36:58.692Z,87.70
2018-08-22T18:39:26.964Z,88.00
2018-08-22T18:41:55.240Z,88.40
2018-08-22T18:44:23.542Z,89.00
2018-08-22T18:46:51.858Z,89.70
2018-08-22T18:49:20.223Z,90.10
2018-08-22T18:51:48.626Z,90.50
2018-08-22T18:54:16.963Z,90.70
2018-08-22T18:56:45.292Z,91.40
2018-08-22T18:59:24.444Z,91.80
2018-08-22T19:01:52.768Z,92.50
2018-08-22T19:04:22.176Z,92.90
2018-08-22T19:06:51.649Z,93.20
2018-08-22T19:09:19.972Z,93.60
2018-08-22T19:11:48.706Z,94.20
2018-08-22T19:14:21.987Z,94.50
2018-08-22T19:16:50.250Z,95.10
2018-08-22T19:19:18.507Z,96.30
2018-08-22T19:21:46.750Z,96.80
2018-08-22T19:24:15.032Z,97.40
2018-08-22T19:26:44.581Z,98.10
2018-08-22T19:29:12.848Z,98.50
2018-08-22T19:37:46.357Z,99.90
2018-08-22T19:43:13.842Z,99.90
2018-08-22T19:45:43.610Z,99.90
2018-08-22T19:48:12.693Z,99.90
2018-08-22T19:50:46.685Z,99.90
2018-08-22T19:53:14.955Z,99.90
2018-08-22T19:55:44.458Z,99.90
2018-08-22T19:58:15.120Z,99.90
2018-08-22T20:00:44.715Z,99.90
2018-08-22T20:03:15.429Z,99.90
2018-08-22T20:05:51.226Z,99.90
2018-08-22T20:08:23.701Z,99.90
2018-08-22T20:10:51.922Z,99.90
2018-08-22T20:13:20.194Z,99.90
2018-08-22T20:15:48.837Z,99.90
2018-08-22T20:18:18.444Z,99.90
2018-08-22T20:20:46.899Z,99.90
2018-08-22T20:23:17.998Z,99.90
2018-08-22T20:25:48.341Z,99.90
2018-08-22T20:28:16.814Z,99.90
2018-08-22T20:30:45.124Z,99.90
2018-08-22T20:33:14.136Z,99.90
2018-08-22T20:35:43.672Z,99.90
2018-08-22T20:38:15.030Z,99.90
2018-08-22T20:40:44.447Z,99.90
2018-08-22T20:43:20.383Z,99.90
2018-08-22T20:45:48.762Z,99.90
2018-08-22T20:48:18.568Z,99.90
2018-08-22T20:50:46.837Z,99.90
2018-08-22T20:53:18.224Z,99.90
2018-08-22T20:55:46.583Z,99.90
2018-08-22T20:58:20.313Z,99.90
2018-08-22T21:00:48.678Z,99.90
2018-08-22T21:03:19.052Z,99.90
2018-08-22T21:05:47.676Z,99.90
2018-08-22T21:08:16.309Z,99.90
2018-08-22T21:10:45.725Z,99.90
2018-08-22T21:13:18.800Z,99.90
2018-08-22T21:15:47.189Z,99.90
2018-08-22T21:18:16.077Z,99.90
2018-08-22T21:20:45.929Z,99.90
2018-08-22T21:23:15.388Z,99.90
2018-08-22T21:25:45.104Z,99.90
2018-08-22T21:28:15.075Z,99.90
2018-08-22T21:30:50.608Z,99.90
2018-08-22T21:33:19.042Z,99.90
2018-08-22T21:35:47.414Z,99.90
2018-08-22T21:38:19.477Z,99.90
2018-08-22T21:40:47.869Z,99.90
2018-08-22T21:43:17.048Z,99.90
2018-08-22T21:45:47.996Z,99.90
2018-08-22T21:48:20.365Z,99.90
2018-08-22T21:50:48.641Z,99.90
2018-08-22T21:53:16.927Z,99.90
2018-08-22T21:55:48.363Z,99.90
2018-08-22T21:58:16.640Z,99.90
2018-08-22T22:00:45.062Z,99.90
2018-08-22T22:03:22.329Z,99.90
2018-08-22T22:05:58.336Z,99.90
2018-08-22T22:08:26.578Z,99.90
2018-08-22T22:11:06.066Z,99.90
2018-08-22T22:13:34.734Z,99.90
2018-08-22T22:16:04.336Z,99.90
2018-08-22T22:18:33.805Z,99.90
2018-08-22T22:21:08.407Z,99.90
2018-08-22T22:23:44.639Z,99.90
2018-08-22T22:26:13.694Z,99.90
2018-08-22T22:28:43.297Z,99.90
2018-08-22T22:31:13.185Z,99.90
2018-08-22T22:34:03.101Z,99.90
2018-08-22T22:36:33.193Z,99.90
2018-08-22T22:39:01.439Z,99.90
2018-08-22T22:41:30.729Z,99.90
2018-08-22T22:44:00.079Z,99.90
2018-08-22T22:46:28.822Z,99.90
2018-08-22T22:48:57.531Z,99.90
2018-08-22T22:51:26.627Z,99.90
2018-08-22T22:53:54.929Z,99.90
2018-08-22T22:56:23.202Z,99.90
2018-08-22T22:58:51.569Z,99.90
2018-08-22T23:01:19.960Z,99.90
2018-08-22T23:03:48.395Z,99.90
2018-08-22T23:06:16.768Z,99.90
2018-08-22T23:08:45.085Z,99.90
2018-08-22T23:11:14.092Z,99.90
2018-08-22T23:13:43.554Z,99.90
2018-08-22T23:16:13.180Z,99.90
2018-08-22T23:18:42.937Z,99.90
2018-08-22T23:21:11.318Z,99.90
2018-08-22T23:23:39.569Z,99.90
2018-08-22T23:26:18.586Z,99.90
2018-08-22T23:28:47.036Z,99.90
2018-08-22T23:31:17.789Z,99.90
2018-08-22T23:33:50.601Z,99.90
2018-08-22T23:36:18.856Z,99.90
2018-08-22T23:38:47.252Z,99.90
2018-08-22T23:41:15.726Z,99.90
2018-08-22T23:43:52.557Z,99.90
2018-08-22T23:46:20.869Z,99.90
2018-08-22T23:48:55.154Z,99.90
2018-08-22T23:51:23.356Z,99.90
2018-08-22T23:53:51.588Z,99.90
2018-08-22T23:56:26.337Z,99.90
2018-08-22T23:58:55.705Z,99.90
